Terminal Aerodrome Forecast
Issued by NWS

Current Version | Previous Version | Text Only | Print | Product List | Glossary On
Versions: 1 2 3 4 5 6 7 8 9 10 11 12 13 14 15 16
892
FTUS44 KLZK 221120
TAFPBF
TAF
KPBF 221120Z 2212/2312 22005KT P6SM -RA VCTS SCT001 BKN008CB
      TEMPO 2213/2217 4SM -TSRA BR BKN008 OVC025CB
     FM221700 25010KT 5SM -RA BR VCTS OVC010CB
     FM222100 32015G25KT P6SM VCSH SCT010 BKN025
     FM230300 33020G25KT P6SM SCT025 BKN040=

USA.gov is the U.S. government's official web portal to all federal, state and local government web resources and services.